sensor_id;sensor_type;location;lat;lon;timestamp;temperature;humidity
17296;DHT22;8766;51.480;6.872;2022-11-20T00:01:07;1.90;74.90
17296;DHT22;8766;51.480;6.872;2022-11-20T00:03:34;1.90;75.00
17296;DHT22;8766;51.480;6.872;2022-11-20T00:06:01;1.90;75.00
17296;DHT22;8766;51.480;6.872;2022-11-20T00:08:28;1.90;75.00
17296;DHT22;8766;51.480;6.872;2022-11-20T00:10:57;1.90;75.00
17296;DHT22;8766;51.480;6.872;2022-11-20T00:13:23;1.90;75.00
17296;DHT22;8766;51.480;6.872;2022-11-20T00:15:57;1.90;75.10
17296;DHT22;8766;51.480;6.872;2022-11-20T00:18:23;1.90;75.10
17296;DHT22;8766;51.480;6.872;2022-11-20T00:20:50;1.90;75.10
17296;DHT22;8766;51.480;6.872;2022-11-20T00:23:17;1.90;75.10
17296;DHT22;8766;51.480;6.872;2022-11-20T00:25:44;1.90;75.00
17296;DHT22;8766;51.480;6.872;2022-11-20T00:28:12;1.90;75.00
17296;DHT22;8766;51.480;6.872;2022-11-20T00:30:38;1.90;75.00
17296;DHT22;8766;51.480;6.872;2022-11-20T00:33:05;1.90;74.90
17296;DHT22;8766;51.480;6.872;2022-11-20T00:35:32;1.80;74.90
17296;DHT22;8766;51.480;6.872;2022-11-20T00:37:58;1.80;75.00
17296;DHT22;8766;51.480;6.872;2022-11-20T00:40:25;1.80;75.00
17296;DHT22;8766;51.480;6.872;2022-11-20T00:42:52;1.80;75.00
17296;DHT22;8766;51.480;6.872;2022-11-20T00:45:20;1.80;75.00
17296;DHT22;8766;51.480;6.872;2022-11-20T00:47:46;1.80;75.00
17296;DHT22;8766;51.480;6.872;2022-11-20T00:50:13;1.70;74.90
17296;DHT22;8766;51.480;6.872;2022-11-20T00:52:40;1.70;75.10
17296;DHT22;8766;51.480;6.872;2022-11-20T00:55:07;1.70;75.10
17296;DHT22;8766;51.480;6.872;2022-11-20T00:57:34;1.70;75.00
17296;DHT22;8766;51.480;6.872;2022-11-20T01:00:00;1.70;75.10
17296;DHT22;8766;51.480;6.872;2022-11-20T01:02:28;1.70;75.10
17296;DHT22;8766;51.480;6.872;2022-11-20T01:04:55;1.60;75.10
17296;DHT22;8766;51.480;6.872;2022-11-20T01:07:22;1.60;75.10
17296;DHT22;8766;51.480;6.872;2022-11-20T01:09:48;1.60;75.10
17296;DHT22;8766;51.480;6.872;2022-11-20T01:12:15;1.60;75.10
17296;DHT22;8766;51.480;6.872;2022-11-20T01:14:42;1.60;75.20
17296;DHT22;8766;51.480;6.872;2022-11-20T01:17:08;1.60;75.20
17296;DHT22;8766;51.480;6.872;2022-11-20T01:19:37;1.60;75.10
17296;DHT22;8766;51.480;6.872;2022-11-20T01:22:03;1.60;75.10
17296;DHT22;8766;51.480;6.872;2022-11-20T01:24:30;1.60;75.10
17296;DHT22;8766;51.480;6.872;2022-11-20T01:26:57;1.50;75.00
17296;DHT22;8766;51.480;6.872;2022-11-20T01:29:24;1.50;75.10
17296;DHT22;8766;51.480;6.872;2022-11-20T01:31:51;1.50;75.20
17296;DHT22;8766;51.480;6.872;2022-11-20T01:34:19;1.50;75.10
17296;DHT22;8766;51.480;6.872;2022-11-20T01:36:49;1.50;75.10
17296;DHT22;8766;51.480;6.872;2022-11-20T01:39:18;1.50;75.10
17296;DHT22;8766;51.480;6.872;2022-11-20T01:41:47;1.50;75.10
17296;DHT22;8766;51.480;6.872;2022-11-20T01:44:48;1.50;75.10
17296;DHT22;8766;51.480;6.872;2022-11-20T01:47:17;1.50;75.20
17296;DHT22;8766;51.480;6.872;2022-11-20T01:49:49;1.50;75.10
17296;DHT22;8766;51.480;6.872;2022-11-20T01:52:20;1.50;75.20
17296;DHT22;8766;51.480;6.872;2022-11-20T01:54:50;1.50;75.20
17296;DHT22;8766;51.480;6.872;2022-11-20T01:57:20;1.50;75.10
17296;DHT22;8766;51.480;6.872;2022-11-20T01:59:52;1.50;75.00
17296;DHT22;8766;51.480;6.872;2022-11-20T02:02:20;1.60;75.10
17296;DHT22;8766;51.480;6.872;2022-11-20T02:04:49;1.60;74.90
17296;DHT22;8766;51.480;6.872;2022-11-20T02:07:20;1.60;74.90
17296;DHT22;8766;51.480;6.872;2022-11-20T02:09:47;1.60;75.00
17296;DHT22;8766;51.480;6.872;2022-11-20T02:12:14;1.70;74.90
17296;DHT22;8766;51.480;6.872;2022-11-20T02:14:55;1.90;74.90
17296;DHT22;8766;51.480;6.872;2022-11-20T02:17:23;1.90;75.10
17296;DHT22;8766;51.480;6.872;2022-11-20T02:19:50;1.90;74.20
17296;DHT22;8766;51.480;6.872;2022-11-20T02:22:21;1.90;74.20
17296;DHT22;8766;51.480;6.872;2022-11-20T02:24:52;2.00;74.20
17296;DHT22;8766;51.480;6.872;2022-11-20T02:27:19;2.10;74.20
17296;DHT22;8766;51.480;6.872;2022-11-20T02:29:50;2.10;74.00
17296;DHT22;8766;51.480;6.872;2022-11-20T02:32:19;2.10;73.90
17296;DHT22;8766;51.480;6.872;2022-11-20T02:34:46;2.10;73.90
17296;DHT22;8766;51.480;6.872;2022-11-20T02:37:13;2.10;73.90
17296;DHT22;8766;51.480;6.872;2022-11-20T02:39:40;2.10;73.80
17296;DHT22;8766;51.480;6.872;2022-11-20T02:42:09;2.20;73.80
17296;DHT22;8766;51.480;6.872;2022-11-20T02:44:36;2.20;73.70
17296;DHT22;8766;51.480;6.872;2022-11-20T02:47:02;2.30;73.60
17296;DHT22;8766;51.480;6.872;2022-11-20T02:49:29;2.30;73.50
17296;DHT22;8766;51.480;6.872;2022-11-20T02:51:56;2.30;73.40
17296;DHT22;8766;51.480;6.872;2022-11-20T02:54:23;2.40;73.30
17296;DHT22;8766;51.480;6.872;2022-11-20T02:56:49;2.40;73.30
17296;DHT22;8766;51.480;6.872;2022-11-20T02:59:18;2.40;73.30
17296;DHT22;8766;51.480;6.872;2022-11-20T03:01:44;2.50;73.30
17296;DHT22;8766;51.480;6.872;2022-11-20T03:04:11;2.50;73.80
17296;DHT22;8766;51.480;6.872;2022-11-20T03:06:38;2.50;73.10
17296;DHT22;8766;51.480;6.872;2022-11-20T03:09:04;2.50;73.10
17296;DHT22;8766;51.480;6.872;2022-11-20T03:11:31;2.50;73.70
17296;DHT22;8766;51.480;6.872;2022-11-20T03:14:01;2.50;73.10
17296;DHT22;8766;51.480;6.872;2022-11-20T03:16:30;2.50;73.10
17296;DHT22;8766;51.480;6.872;2022-11-20T03:18:57;2.50;73.10
17296;DHT22;8766;51.480;6.872;2022-11-20T03:21:24;2.60;73.00
17296;DHT22;8766;51.480;6.872;2022-11-20T03:23:51;2.60;73.00
17296;DHT22;8766;51.480;6.872;2022-11-20T03:26:20;2.50;72.90
17296;DHT22;8766;51.480;6.872;2022-11-20T03:28:48;2.50;73.00
17296;DHT22;8766;51.480;6.872;2022-11-20T03:31:17;2.50;73.00
17296;DHT22;8766;51.480;6.872;2022-11-20T03:33:46;2.60;73.00
17296;DHT22;8766;51.480;6.872;2022-11-20T03:36:14;2.60;73.00
17296;DHT22;8766;51.480;6.872;2022-11-20T03:38:41;2.60;72.90
17296;DHT22;8766;51.480;6.872;2022-11-20T03:41:10;2.60;72.80
17296;DHT22;8766;51.480;6.872;2022-11-20T03:43:37;2.60;72.70
17296;DHT22;8766;51.480;6.872;2022-11-20T03:46:05;2.60;72.80
17296;DHT22;8766;51.480;6.872;2022-11-20T03:48:32;2.60;72.80
17296;DHT22;8766;51.480;6.872;2022-11-20T03:51:11;2.60;72.70
17296;DHT22;8766;51.480;6.872;2022-11-20T03:53:38;2.60;72.70
17296;DHT22;8766;51.480;6.872;2022-11-20T03:56:06;2.50;72.80
17296;DHT22;8766;51.480;6.872;2022-11-20T03:58:33;2.40;72.90
17296;DHT22;8766;51.480;6.872;2022-11-20T04:01:05;2.40;73.10
17296;DHT22;8766;51.480;6.872;2022-11-20T04:03:32;2.40;73.10
17296;DHT22;8766;51.480;6.872;2022-11-20T04:06:02;2.40;73.10
17296;DHT22;8766;51.480;6.872;2022-11-20T04:08:31;2.40;73.10
17296;DHT22;8766;51.480;6.872;2022-11-20T04:11:08;2.50;73.10
17296;DHT22;8766;51.480;6.872;2022-11-20T04:13:35;2.50;73.10
17296;DHT22;8766;51.480;6.872;2022-11-20T04:16:02;2.50;72.90
17296;DHT22;8766;51.480;6.872;2022-11-20T04:18:29;2.50;72.80
17296;DHT22;8766;51.480;6.872;2022-11-20T04:20:56;2.60;72.80
17296;DHT22;8766;51.480;6.872;2022-11-20T04:23:23;2.60;72.80
17296;DHT22;8766;51.480;6.872;2022-11-20T04:25:51;2.60;72.70
17296;DHT22;8766;51.480;6.872;2022-11-20T04:28:18;2.60;72.60
17296;DHT22;8766;51.480;6.872;2022-11-20T04:30:44;2.60;72.60
17296;DHT22;8766;51.480;6.872;2022-11-20T04:33:11;2.60;72.60
17296;DHT22;8766;51.480;6.872;2022-11-20T04:35:38;2.60;73.30
17296;DHT22;8766;51.480;6.872;2022-11-20T04:38:05;2.60;72.80
17296;DHT22;8766;51.480;6.872;2022-11-20T04:40:31;2.60;72.80
17296;DHT22;8766;51.480;6.872;2022-11-20T04:43:00;2.50;72.80
17296;DHT22;8766;51.480;6.872;2022-11-20T04:45:26;2.50;72.80
17296;DHT22;8766;51.480;6.872;2022-11-20T04:47:53;2.50;72.90
17296;DHT22;8766;51.480;6.872;2022-11-20T04:50:20;2.50;72.90
17296;DHT22;8766;51.480;6.872;2022-11-20T04:52:46;2.50;72.90
17296;DHT22;8766;51.480;6.872;2022-11-20T04:55:13;2.50;72.90
17296;DHT22;8766;51.480;6.872;2022-11-20T04:57:40;2.60;72.90
17296;DHT22;8766;51.480;6.872;2022-11-20T05:00:09;2.60;72.80
17296;DHT22;8766;51.480;6.872;2022-11-20T05:02:36;2.70;72.70
17296;DHT22;8766;51.480;6.872;2022-11-20T05:05:03;2.70;72.60
17296;DHT22;8766;51.480;6.872;2022-11-20T05:07:30;2.70;72.50
17296;DHT22;8766;51.480;6.872;2022-11-20T05:09:57;2.80;72.50
17296;DHT22;8766;51.480;6.872;2022-11-20T05:12:23;2.80;72.40
17296;DHT22;8766;51.480;6.872;2022-11-20T05:14:50;2.80;72.30
17296;DHT22;8766;51.480;6.872;2022-11-20T05:17:18;2.80;72.30
17296;DHT22;8766;51.480;6.872;2022-11-20T05:19:45;2.80;72.30
17296;DHT22;8766;51.480;6.872;2022-11-20T05:22:11;2.80;72.30
17296;DHT22;8766;51.480;6.872;2022-11-20T05:24:38;2.80;72.30
17296;DHT22;8766;51.480;6.872;2022-11-20T05:27:05;2.80;72.30
17296;DHT22;8766;51.480;6.872;2022-11-20T05:29:31;2.80;72.90
17296;DHT22;8766;51.480;6.872;2022-11-20T05:31:58;2.80;72.30
17296;DHT22;8766;51.480;6.872;2022-11-20T05:34:26;2.80;72.40
17296;DHT22;8766;51.480;6.872;2022-11-20T05:36:53;2.80;72.40
17296;DHT22;8766;51.480;6.872;2022-11-20T05:39:19;2.80;72.30
17296;DHT22;8766;51.480;6.872;2022-11-20T05:41:46;2.90;72.30
17296;DHT22;8766;51.480;6.872;2022-11-20T05:44:33;2.80;72.20
17296;DHT22;8766;51.480;6.872;2022-11-20T05:46:59;2.90;72.30
17296;DHT22;8766;51.480;6.872;2022-11-20T05:49:27;2.90;72.20
17296;DHT22;8766;51.480;6.872;2022-11-20T05:51:54;2.90;72.20
17296;DHT22;8766;51.480;6.872;2022-11-20T05:54:21;2.90;72.10
17296;DHT22;8766;51.480;6.872;2022-11-20T05:56:47;2.90;72.10
17296;DHT22;8766;51.480;6.872;2022-11-20T05:59:14;2.90;72.10
17296;DHT22;8766;51.480;6.872;2022-11-20T06:01:41;3.00;72.10
17296;DHT22;8766;51.480;6.872;2022-11-20T06:04:07;3.00;72.10
17296;DHT22;8766;51.480;6.872;2022-11-20T06:06:35;3.00;72.10
17296;DHT22;8766;51.480;6.872;2022-11-20T06:09:02;3.00;72.00
17296;DHT22;8766;51.480;6.872;2022-11-20T06:11:29;3.00;72.00
17296;DHT22;8766;51.480;6.872;2022-11-20T06:13:55;3.00;72.00
17296;DHT22;8766;51.480;6.872;2022-11-20T06:16:22;3.00;72.00
17296;DHT22;8766;51.480;6.872;2022-11-20T06:18:49;3.00;72.00
17296;DHT22;8766;51.480;6.872;2022-11-20T06:21:17;2.90;72.00
17296;DHT22;8766;51.480;6.872;2022-11-20T06:23:46;2.90;72.10
17296;DHT22;8766;51.480;6.872;2022-11-20T06:26:15;2.90;72.20
17296;DHT22;8766;51.480;6.872;2022-11-20T06:28:42;2.90;72.30
17296;DHT22;8766;51.480;6.872;2022-11-20T06:31:11;2.90;72.30
17296;DHT22;8766;51.480;6.872;2022-11-20T06:33:38;2.90;72.30
17296;DHT22;8766;51.480;6.872;2022-11-20T06:36:05;2.80;72.30
17296;DHT22;8766;51.480;6.872;2022-11-20T06:38:32;2.70;72.40
17296;DHT22;8766;51.480;6.872;2022-11-20T06:41:00;2.70;72.60
17296;DHT22;8766;51.480;6.872;2022-11-20T06:43:28;2.60;72.70
17296;DHT22;8766;51.480;6.872;2022-11-20T06:45:57;2.60;72.80
17296;DHT22;8766;51.480;6.872;2022-11-20T06:48:25;2.60;72.90
17296;DHT22;8766;51.480;6.872;2022-11-20T06:50:52;2.60;72.90
17296;DHT22;8766;51.480;6.872;2022-11-20T06:53:18;2.50;72.90
17296;DHT22;8766;51.480;6.872;2022-11-20T06:55:46;2.60;73.00
17296;DHT22;8766;51.480;6.872;2022-11-20T06:58:15;2.50;72.90
17296;DHT22;8766;51.480;6.872;2022-11-20T07:00:42;2.50;72.90
17296;DHT22;8766;51.480;6.872;2022-11-20T07:03:10;2.50;72.90
17296;DHT22;8766;51.480;6.872;2022-11-20T07:05:37;2.50;72.90
17296;DHT22;8766;51.480;6.872;2022-11-20T07:08:05;2.60;73.00
17296;DHT22;8766;51.480;6.872;2022-11-20T07:10:32;2.60;73.00
17296;DHT22;8766;51.480;6.872;2022-11-20T07:12:59;2.60;72.90
17296;DHT22;8766;51.480;6.872;2022-11-20T07:15:27;2.60;72.90
17296;DHT22;8766;51.480;6.872;2022-11-20T07:17:54;2.60;72.90
17296;DHT22;8766;51.480;6.872;2022-11-20T07:20:21;2.60;72.80
17296;DHT22;8766;51.480;6.872;2022-11-20T07:22:53;2.70;72.80
17296;DHT22;8766;51.480;6.872;2022-11-20T07:25:20;2.70;72.70
17296;DHT22;8766;51.480;6.872;2022-11-20T07:27:46;2.70;72.60
17296;DHT22;8766;51.480;6.872;2022-11-20T07:30:14;2.80;72.50
17296;DHT22;8766;51.480;6.872;2022-11-20T07:32:42;2.80;72.30
17296;DHT22;8766;51.480;6.872;2022-11-20T07:35:08;2.90;72.30
17296;DHT22;8766;51.480;6.872;2022-11-20T07:37:35;2.90;72.30
17296;DHT22;8766;51.480;6.872;2022-11-20T07:40:03;3.00;72.20
17296;DHT22;8766;51.480;6.872;2022-11-20T07:42:29;3.00;72.20
17296;DHT22;8766;51.480;6.872;2022-11-20T07:44:56;3.00;72.10
17296;DHT22;8766;51.480;6.872;2022-11-20T07:47:23;3.00;72.00
17296;DHT22;8766;51.480;6.872;2022-11-20T07:49:51;3.10;72.00
17296;DHT22;8766;51.480;6.872;2022-11-20T07:52:18;3.10;71.90
17296;DHT22;8766;51.480;6.872;2022-11-20T07:54:45;3.10;71.90
17296;DHT22;8766;51.480;6.872;2022-11-20T07:57:11;3.10;71.90
17296;DHT22;8766;51.480;6.872;2022-11-20T07:59:38;3.10;72.00
17296;DHT22;8766;51.480;6.872;2022-11-20T08:02:05;3.00;72.10
17296;DHT22;8766;51.480;6.872;2022-11-20T08:04:32;2.90;72.20
17296;DHT22;8766;51.480;6.872;2022-11-20T08:07:00;2.90;72.30
17296;DHT22;8766;51.480;6.872;2022-11-20T08:09:26;3.00;72.50
17296;DHT22;8766;51.480;6.872;2022-11-20T08:11:54;3.10;72.20
17296;DHT22;8766;51.480;6.872;2022-11-20T08:14:38;3.20;72.60
17296;DHT22;8766;51.480;6.872;2022-11-20T08:17:04;3.30;71.90
17296;DHT22;8766;51.480;6.872;2022-11-20T08:19:31;3.30;71.70
17296;DHT22;8766;51.480;6.872;2022-11-20T08:21:59;3.40;71.70
17296;DHT22;8766;51.480;6.872;2022-11-20T08:24:26;3.50;71.60
17296;DHT22;8766;51.480;6.872;2022-11-20T08:26:52;3.80;71.30
17296;DHT22;8766;51.480;6.872;2022-11-20T08:29:19;4.00;70.80
17296;DHT22;8766;51.480;6.872;2022-11-20T08:31:46;4.20;70.20
17296;DHT22;8766;51.480;6.872;2022-11-20T08:34:13;4.40;69.70
17296;DHT22;8766;51.480;6.872;2022-11-20T08:36:39;4.50;70.10
17296;DHT22;8766;51.480;6.872;2022-11-20T08:39:07;4.60;69.30
17296;DHT22;8766;51.480;6.872;2022-11-20T08:41:34;4.60;69.30
17296;DHT22;8766;51.480;6.872;2022-11-20T08:44:04;4.60;69.30
17296;DHT22;8766;51.480;6.872;2022-11-20T08:46:33;4.60;69.30
17296;DHT22;8766;51.480;6.872;2022-11-20T08:49:01;4.70;69.30
17296;DHT22;8766;51.480;6.872;2022-11-20T08:51:28;4.70;69.30
17296;DHT22;8766;51.480;6.872;2022-11-20T08:53:55;4.70;69.30
17296;DHT22;8766;51.480;6.872;2022-11-20T08:56:23;4.70;69.30
17296;DHT22;8766;51.480;6.872;2022-11-20T08:58:50;4.70;69.30
17296;DHT22;8766;51.480;6.872;2022-11-20T09:01:17;4.70;69.40
17296;DHT22;8766;51.480;6.872;2022-11-20T09:03:44;4.70;69.30
17296;DHT22;8766;51.480;6.872;2022-11-20T09:06:11;4.80;69.30
17296;DHT22;8766;51.480;6.872;2022-11-20T09:08:37;4.80;69.20
17296;DHT22;8766;51.480;6.872;2022-11-20T09:11:05;4.90;69.10
17296;DHT22;8766;51.480;6.872;2022-11-20T09:13:34;5.00;69.00
17296;DHT22;8766;51.480;6.872;2022-11-20T09:16:02;5.00;68.90
17296;DHT22;8766;51.480;6.872;2022-11-20T09:18:30;5.00;68.80
17296;DHT22;8766;51.480;6.872;2022-11-20T09:20:58;5.00;68.80
17296;DHT22;8766;51.480;6.872;2022-11-20T09:23:25;5.10;68.90
17296;DHT22;8766;51.480;6.872;2022-11-20T09:25:52;5.20;68.80
17296;DHT22;8766;51.480;6.872;2022-11-20T09:28:20;5.20;68.60
17296;DHT22;8766;51.480;6.872;2022-11-20T09:30:48;5.30;68.50
17296;DHT22;8766;51.480;6.872;2022-11-20T09:33:15;5.40;68.30
17296;DHT22;8766;51.480;6.872;2022-11-20T09:35:42;5.50;68.10
17296;DHT22;8766;51.480;6.872;2022-11-20T09:38:10;5.60;68.00
17296;DHT22;8766;51.480;6.872;2022-11-20T09:40:40;5.70;67.80
17296;DHT22;8766;51.480;6.872;2022-11-20T09:43:15;6.10;67.50
17296;DHT22;8766;51.480;6.872;2022-11-20T09:45:55;6.50;66.90
17296;DHT22;8766;51.480;6.872;2022-11-20T09:51:39;8.30;63.70
17296;DHT22;8766;51.480;6.872;2022-11-20T09:54:15;8.70;62.60
17296;DHT22;8766;51.480;6.872;2022-11-20T09:56:46;9.40;61.80
17296;DHT22;8766;51.480;6.872;2022-11-20T09:59:26;9.90;60.70
17296;DHT22;8766;51.480;6.872;2022-11-20T10:01:57;10.30;60.00
17296;DHT22;8766;51.480;6.872;2022-11-20T10:04:25;10.40;60.00
17296;DHT22;8766;51.480;6.872;2022-11-20T10:07:00;10.50;60.00
17296;DHT22;8766;51.480;6.872;2022-11-20T10:09:32;10.40;60.10
17296;DHT22;8766;51.480;6.872;2022-11-20T10:12:09;10.00;61.00
17296;DHT22;8766;51.480;6.872;2022-11-20T10:14:50;9.60;61.70
17296;DHT22;8766;51.480;6.872;2022-11-20T10:17:29;9.30;62.30
17296;DHT22;8766;51.480;6.872;2022-11-20T10:20:14;8.90;63.00
17296;DHT22;8766;51.480;6.872;2022-11-20T10:22:53;8.60;63.90
17296;DHT22;8766;51.480;6.872;2022-11-20T10:25:25;8.30;64.50
17296;DHT22;8766;51.480;6.872;2022-11-20T10:28:21;8.00;65.00
17296;DHT22;8766;51.480;6.872;2022-11-20T10:30:59;7.70;65.60
17296;DHT22;8766;51.480;6.872;2022-11-20T10:33:32;7.50;66.20
17296;DHT22;8766;51.480;6.872;2022-11-20T10:36:06;7.30;66.60
17296;DHT22;8766;51.480;6.872;2022-11-20T10:38:37;7.20;66.80
17296;DHT22;8766;51.480;6.872;2022-11-20T10:41:06;7.10;66.90
17296;DHT22;8766;51.480;6.872;2022-11-20T10:43:57;7.10;66.90
17296;DHT22;8766;51.480;6.872;2022-11-20T10:46:29;7.10;66.90
17296;DHT22;8766;51.480;6.872;2022-11-20T10:49:00;7.10;66.70
17296;DHT22;8766;51.480;6.872;2022-11-20T10:51:35;7.10;66.50
17296;DHT22;8766;51.480;6.872;2022-11-20T10:54:16;7.20;66.60
17296;DHT22;8766;51.480;6.872;2022-11-20T10:56:47;7.10;66.50
17296;DHT22;8766;51.480;6.872;2022-11-20T10:59:32;7.10;66.40
17296;DHT22;8766;51.480;6.872;2022-11-20T11:02:12;7.10;66.40
17296;DHT22;8766;51.480;6.872;2022-11-20T11:04:45;7.10;66.40
17296;DHT22;8766;51.480;6.872;2022-11-20T11:07:15;7.10;66.40
17296;DHT22;8766;51.480;6.872;2022-11-20T11:09:45;7.30;66.60
17296;DHT22;8766;51.480;6.872;2022-11-20T11:12:13;7.10;66.50
17296;DHT22;8766;51.480;6.872;2022-11-20T11:14:45;7.00;66.50
17296;DHT22;8766;51.480;6.872;2022-11-20T11:17:22;7.10;66.60
17296;DHT22;8766;51.480;6.872;2022-11-20T11:19:59;7.10;66.50
17296;DHT22;8766;51.480;6.872;2022-11-20T11:22:28;7.10;66.60
17296;DHT22;8766;51.480;6.872;2022-11-20T11:24:55;7.10;66.40
17296;DHT22;8766;51.480;6.872;2022-11-20T11:27:22;7.10;66.40
17296;DHT22;8766;51.480;6.872;2022-11-20T11:29:49;7.10;66.40
17296;DHT22;8766;51.480;6.872;2022-11-20T11:32:18;7.00;66.40
17296;DHT22;8766;51.480;6.872;2022-11-20T11:35:00;7.00;66.50
17296;DHT22;8766;51.480;6.872;2022-11-20T11:37:32;6.90;66.60
17296;DHT22;8766;51.480;6.872;2022-11-20T11:40:00;6.80;66.70
17296;DHT22;8766;51.480;6.872;2022-11-20T11:42:28;6.80;66.80
17296;DHT22;8766;51.480;6.872;2022-11-20T11:44:57;6.80;66.90
17296;DHT22;8766;51.480;6.872;2022-11-20T11:47:35;6.90;66.90
17296;DHT22;8766;51.480;6.872;2022-11-20T11:50:17;6.90;66.70
17296;DHT22;8766;51.480;6.872;2022-11-20T11:52:48;7.00;66.60
17296;DHT22;8766;51.480;6.872;2022-11-20T11:55:22;7.00;66.60
17296;DHT22;8766;51.480;6.872;2022-11-20T11:57:54;7.00;66.60
17296;DHT22;8766;51.480;6.872;2022-11-20T12:00:22;7.00;66.60
17296;DHT22;8766;51.480;6.872;2022-11-20T12:02:57;6.90;66.50
17296;DHT22;8766;51.480;6.872;2022-11-20T12:05:32;6.90;66.60
17296;DHT22;8766;51.480;6.872;2022-11-20T12:08:05;6.90;66.60
17296;DHT22;8766;51.480;6.872;2022-11-20T12:10:41;6.90;66.70
17296;DHT22;8766;51.480;6.872;2022-11-20T12:13:20;6.80;66.80
17296;DHT22;8766;51.480;6.872;2022-11-20T12:15:48;6.80;66.90
17296;DHT22;8766;51.480;6.872;2022-11-20T12:18:16;6.80;67.00
17296;DHT22;8766;51.480;6.872;2022-11-20T12:20:54;6.70;67.00
17296;DHT22;8766;51.480;6.872;2022-11-20T12:23:28;6.70;67.90
17296;DHT22;8766;51.480;6.872;2022-11-20T12:26:02;6.60;67.30
17296;DHT22;8766;51.480;6.872;2022-11-20T12:28:37;6.60;67.50
17296;DHT22;8766;51.480;6.872;2022-11-20T12:31:19;6.60;67.50
17296;DHT22;8766;51.480;6.872;2022-11-20T12:33:59;6.60;67.60
17296;DHT22;8766;51.480;6.872;2022-11-20T12:36:39;6.60;67.50
17296;DHT22;8766;51.480;6.872;2022-11-20T12:39:13;6.60;67.50
17296;DHT22;8766;51.480;6.872;2022-11-20T12:41:49;6.60;68.10
17296;DHT22;8766;51.480;6.872;2022-11-20T12:45:04;6.60;67.50
17296;DHT22;8766;51.480;6.872;2022-11-20T12:50:36;6.60;67.50
17296;DHT22;8766;51.480;6.872;2022-11-20T12:53:13;6.60;67.40
17296;DHT22;8766;51.480;6.872;2022-11-20T12:55:48;6.60;67.30
17296;DHT22;8766;51.480;6.872;2022-11-20T12:58:24;6.70;67.30
17296;DHT22;8766;51.480;6.872;2022-11-20T13:00:56;6.70;67.30
17296;DHT22;8766;51.480;6.872;2022-11-20T13:03:42;6.70;67.20
17296;DHT22;8766;51.480;6.872;2022-11-20T13:06:15;6.70;67.20
17296;DHT22;8766;51.480;6.872;2022-11-20T13:08:49;6.70;67.20
17296;DHT22;8766;51.480;6.872;2022-11-20T13:11:21;6.70;67.20
17296;DHT22;8766;51.480;6.872;2022-11-20T13:14:11;6.70;67.20
17296;DHT22;8766;51.480;6.872;2022-11-20T13:16:45;6.70;67.20
17296;DHT22;8766;51.480;6.872;2022-11-20T13:19:15;6.70;67.20
17296;DHT22;8766;51.480;6.872;2022-11-20T13:21:44;6.70;67.20
17296;DHT22;8766;51.480;6.872;2022-11-20T13:24:23;6.70;67.30
17296;DHT22;8766;51.480;6.872;2022-11-20T13:27:17;6.70;67.30
17296;DHT22;8766;51.480;6.872;2022-11-20T13:29:47;6.70;67.40
17296;DHT22;8766;51.480;6.872;2022-11-20T13:32:24;6.70;67.40
17296;DHT22;8766;51.480;6.872;2022-11-20T13:34:54;6.60;67.40
17296;DHT22;8766;51.480;6.872;2022-11-20T13:37:27;6.70;67.50
17296;DHT22;8766;51.480;6.872;2022-11-20T13:40:05;6.70;67.50
17296;DHT22;8766;51.480;6.872;2022-11-20T13:42:35;6.70;67.50
17296;DHT22;8766;51.480;6.872;2022-11-20T13:45:09;6.70;67.50
17296;DHT22;8766;51.480;6.872;2022-11-20T13:47:37;6.70;67.50
17296;DHT22;8766;51.480;6.872;2022-11-20T13:50:04;6.70;67.50
17296;DHT22;8766;51.480;6.872;2022-11-20T13:52:42;6.70;67.50
17296;DHT22;8766;51.480;6.872;2022-11-20T13:55:18;6.70;67.60
17296;DHT22;8766;51.480;6.872;2022-11-20T13:58:03;6.80;67.60
17296;DHT22;8766;51.480;6.872;2022-11-20T14:00:32;6.70;67.60
17296;DHT22;8766;51.480;6.872;2022-11-20T14:03:06;6.60;67.60
17296;DHT22;8766;51.480;6.872;2022-11-20T14:05:37;6.70;67.70
17296;DHT22;8766;51.480;6.872;2022-11-20T14:08:06;6.70;67.70
17296;DHT22;8766;51.480;6.872;2022-11-20T14:10:38;6.70;67.70
17296;DHT22;8766;51.480;6.872;2022-11-20T14:13:10;6.70;67.70
17296;DHT22;8766;51.480;6.872;2022-11-20T14:15:37;6.70;67.80
17296;DHT22;8766;51.480;6.872;2022-11-20T14:18:13;6.70;67.80
17296;DHT22;8766;51.480;6.872;2022-11-20T14:20:40;6.60;67.80
17296;DHT22;8766;51.480;6.872;2022-11-20T14:23:09;6.60;67.80
17296;DHT22;8766;51.480;6.872;2022-11-20T14:25:42;6.60;67.80
17296;DHT22;8766;51.480;6.872;2022-11-20T14:28:11;6.60;67.90
17296;DHT22;8766;51.480;6.872;2022-11-20T14:30:47;6.60;68.00
17296;DHT22;8766;51.480;6.872;2022-11-20T14:33:14;6.60;68.00
17296;DHT22;8766;51.480;6.872;2022-11-20T14:35:45;6.60;68.00
17296;DHT22;8766;51.480;6.872;2022-11-20T14:38:15;6.60;68.00
17296;DHT22;8766;51.480;6.872;2022-11-20T14:40:44;6.60;68.00
17296;DHT22;8766;51.480;6.872;2022-11-20T14:43:22;6.60;67.90
17296;DHT22;8766;51.480;6.872;2022-11-20T14:45:55;6.60;67.90
17296;DHT22;8766;51.480;6.872;2022-11-20T14:48:26;6.70;68.00
17296;DHT22;8766;51.480;6.872;2022-11-20T14:50:54;6.70;68.00
17296;DHT22;8766;51.480;6.872;2022-11-20T14:53:22;6.70;68.00
17296;DHT22;8766;51.480;6.872;2022-11-20T14:55:56;6.70;68.00
17296;DHT22;8766;51.480;6.872;2022-11-20T14:58:25;6.70;68.10
17296;DHT22;8766;51.480;6.872;2022-11-20T15:00:57;6.70;68.10
17296;DHT22;8766;51.480;6.872;2022-11-20T15:03:31;6.70;68.10
17296;DHT22;8766;51.480;6.872;2022-11-20T15:05:58;6.60;68.10
17296;DHT22;8766;51.480;6.872;2022-11-20T15:08:25;6.70;68.10
17296;DHT22;8766;51.480;6.872;2022-11-20T15:10:52;6.60;68.20
17296;DHT22;8766;51.480;6.872;2022-11-20T15:13:26;6.70;68.20
17296;DHT22;8766;51.480;6.872;2022-11-20T15:15:54;6.60;68.20
17296;DHT22;8766;51.480;6.872;2022-11-20T15:18:23;6.60;68.20
17296;DHT22;8766;51.480;6.872;2022-11-20T15:20:50;6.60;68.20
17296;DHT22;8766;51.480;6.872;2022-11-20T15:23:18;6.60;68.30
17296;DHT22;8766;51.480;6.872;2022-11-20T15:25:46;6.60;68.30
17296;DHT22;8766;51.480;6.872;2022-11-20T15:28:17;6.60;68.40
17296;DHT22;8766;51.480;6.872;2022-11-20T15:30:46;6.60;68.40
17296;DHT22;8766;51.480;6.872;2022-11-20T15:33:14;6.60;68.50
17296;DHT22;8766;51.480;6.872;2022-11-20T15:35:41;6.60;68.50
17296;DHT22;8766;51.480;6.872;2022-11-20T15:38:08;6.50;68.40
17296;DHT22;8766;51.480;6.872;2022-11-20T15:40:35;6.50;68.50
17296;DHT22;8766;51.480;6.872;2022-11-20T15:43:02;6.50;68.70
17296;DHT22;8766;51.480;6.872;2022-11-20T15:45:33;6.50;68.80
17296;DHT22;8766;51.480;6.872;2022-11-20T15:48:04;6.50;68.80
17296;DHT22;8766;51.480;6.872;2022-11-20T15:50:37;6.40;68.90
17296;DHT22;8766;51.480;6.872;2022-11-20T15:53:04;6.40;68.90
17296;DHT22;8766;51.480;6.872;2022-11-20T15:55:31;6.40;68.80
17296;DHT22;8766;51.480;6.872;2022-11-20T15:57:58;6.40;68.90
17296;DHT22;8766;51.480;6.872;2022-11-20T16:00:24;6.40;68.90
17296;DHT22;8766;51.480;6.872;2022-11-20T16:02:51;6.40;69.00
17296;DHT22;8766;51.480;6.872;2022-11-20T16:05:19;6.40;68.90
17296;DHT22;8766;51.480;6.872;2022-11-20T16:07:48;6.40;69.00
17296;DHT22;8766;51.480;6.872;2022-11-20T16:10:16;6.40;69.00
17296;DHT22;8766;51.480;6.872;2022-11-20T16:12:42;6.40;69.00
17296;DHT22;8766;51.480;6.872;2022-11-20T16:15:27;6.40;69.10
17296;DHT22;8766;51.480;6.872;2022-11-20T16:18:15;6.40;69.00
17296;DHT22;8766;51.480;6.872;2022-11-20T16:20:44;6.40;69.00
17296;DHT22;8766;51.480;6.872;2022-11-20T16:23:10;6.40;69.00
17296;DHT22;8766;51.480;6.872;2022-11-20T16:25:37;6.40;69.10